Time;durP1;ratioP1;P1;durP2;ratioP2;P2;SDS_P1;SDS_P2;PMS_P1;PMS_P2;Temp;Humidity;BMP_temperature;BMP_pressure;BME280_temperature;BME280_humidity;BME280_pressure;Samples;Min_cycle;Max_cycle;Signal;HPM_P1;HPM_P2
2023/12/24 00:00:19;;;;;;;2.33;1.70;;;;;;;;;;5072200;28;20044;-77
2023/12/24 00:02:44;;;;;;;2.40;1.60;;;;;;;;;;5072998;28;20499;-78
2023/12/24 00:05:09;;;;;;;3.40;1.87;;;;;;;;;;5072853;28;20028;-79
2023/12/24 00:07:35;;;;;;;2.50;1.52;;;;;;;;;;5072708;28;20265;-78
2023/12/24 00:10:00;;;;;;;1.73;1.40;;;;;;;;;;5072848;28;20529;-78
2023/12/24 00:12:25;;;;;;;2.00;1.60;;;;;;;;;;5072692;28;20066;-78
2023/12/24 00:14:51;;;;;;;1.92;1.40;;;;;;;;;;5073021;28;20387;-79
2023/12/24 00:17:16;;;;;;;1.73;1.37;;;;;;;;;;5072937;28;20055;-79
2023/12/24 00:19:41;;;;;;;3.33;1.43;;;;;;;;;;5071493;28;20673;-77
2023/12/24 00:22:06;;;;;;;2.60;1.75;;;;;;;;;;5072684;28;20628;-78
2023/12/24 00:24:32;;;;;;;2.80;1.60;;;;;;;;;;5072971;28;20063;-77
2023/12/24 00:26:57;;;;;;;4.38;1.90;;;;;;;;;;5088126;28;20082;-77
2023/12/24 00:29:22;;;;;;;2.57;1.83;;;;;;;;;;5071252;28;20016;-77
2023/12/24 00:31:48;;;;;;;2.17;1.80;;;;;;;;;;5072355;28;20307;-77
2023/12/24 00:34:13;;;;;;;1.95;1.48;;;;;;;;;;5071207;28;20055;-78
2023/12/24 00:36:38;;;;;;;2.37;1.80;;;;;;;;;;5072257;28;20107;-78
2023/12/24 00:39:04;;;;;;;1.60;1.30;;;;;;;;;;5070965;28;20822;-78
2023/12/24 00:41:30;;;;;;;3.28;1.63;;;;;;;;;;5072736;28;20028;-78
2023/12/24 00:43:55;;;;;;;2.67;1.52;;;;;;;;;;5071090;28;20111;-77
2023/12/24 00:46:21;;;;;;;2.97;1.83;;;;;;;;;;5072607;28;20427;-78
2023/12/24 00:48:46;;;;;;;3.00;1.60;;;;;;;;;;5071028;28;20399;-77
2023/12/24 00:51:11;;;;;;;1.17;1.00;;;;;;;;;;5072285;28;20648;-78
2023/12/24 00:53:36;;;;;;;1.52;1.30;;;;;;;;;;5072332;28;20624;-78
2023/12/24 00:56:02;;;;;;;4.22;0.65;;;;;;;;;;5072046;28;20027;-77
2023/12/24 00:58:27;;;;;;;0.60;0.50;;;;;;;;;;5088390;28;20099;-79
2023/12/24 01:00:52;;;;;;;1.00;0.50;;;;;;;;;;5072354;28;20028;-79
2023/12/24 01:03:18;;;;;;;0.37;0.37;;;;;;;;;;5072340;28;20033;-79
2023/12/24 01:05:43;;;;;;;0.73;0.40;;;;;;;;;;5070501;28;20342;-77
2023/12/24 01:08:08;;;;;;;0.35;0.35;;;;;;;;;;5070614;28;20127;-76
2023/12/24 01:10:33;;;;;;;0.33;0.30;;;;;;;;;;5070323;28;20060;-78
2023/12/24 01:12:59;;;;;;;0.20;0.20;;;;;;;;;;5074829;28;20272;-77
2023/12/24 01:15:24;;;;;;;1.10;0.47;;;;;;;;;;5076401;28;20035;-78
2023/12/24 01:17:49;;;;;;;0.40;0.40;;;;;;;;;;5077969;28;20352;-79
2023/12/24 01:20:16;;;;;;;0.30;0.30;;;;;;;;;;5076347;28;20044;-79
2023/12/24 01:22:41;;;;;;;0.38;0.38;;;;;;;;;;5075921;28;20252;-78
2023/12/24 01:25:07;;;;;;;0.68;0.50;;;;;;;;;;5075602;28;20399;-79
2023/12/24 01:27:32;;;;;;;0.30;0.30;;;;;;;;;;5091740;28;20021;-78
2023/12/24 01:29:58;;;;;;;0.52;0.40;;;;;;;;;;5091088;28;20154;-78
2023/12/24 01:32:23;;;;;;;0.53;0.43;;;;;;;;;;5075701;28;20115;-79
2023/12/24 01:34:48;;;;;;;0.57;0.50;;;;;;;;;;5075906;28;20379;-77
2023/12/24 01:37:13;;;;;;;0.60;0.47;;;;;;;;;;5075157;28;20372;-78
2023/12/24 01:39:38;;;;;;;0.50;0.50;;;;;;;;;;5075188;28;20945;-77
2023/12/24 01:42:04;;;;;;;1.70;0.50;;;;;;;;;;5075296;28;20788;-79
2023/12/24 01:44:29;;;;;;;1.20;0.60;;;;;;;;;;5075536;28;20829;-77
2023/12/24 01:46:54;;;;;;;0.80;0.50;;;;;;;;;;5075025;28;20035;-79
2023/12/24 01:49:20;;;;;;;0.85;0.47;;;;;;;;;;5075033;28;20055;-78
2023/12/24 01:51:46;;;;;;;0.82;0.60;;;;;;;;;;5074938;28;20094;-79
2023/12/24 01:54:12;;;;;;;1.02;0.60;;;;;;;;;;5075063;28;20154;-78
2023/12/24 01:56:40;;;;;;;0.60;0.60;;;;;;;;;;5074851;28;20032;-79
2023/12/24 01:59:08;;;;;;;5.72;2.38;;;;;;;;;;5075079;28;20041;-78
2023/12/24 02:01:34;;;;;;;0.82;0.57;;;;;;;;;;5091039;28;20052;-79
2023/12/24 02:03:59;;;;;;;0.88;0.35;;;;;;;;;;5075460;28;20064;-78
2023/12/24 02:06:25;;;;;;;0.43;0.40;;;;;;;;;;5075790;28;20036;-79
2023/12/24 02:08:51;;;;;;;0.30;0.30;;;;;;;;;;5074290;28;20021;-79
2023/12/24 02:11:16;;;;;;;0.57;0.40;;;;;;;;;;5075294;28;20031;-76
2023/12/24 02:13:42;;;;;;;0.40;0.40;;;;;;;;;;5075441;28;20099;-78
2023/12/24 02:16:08;;;;;;;0.43;0.35;;;;;;;;;;5075182;28;20028;-79
2023/12/24 02:18:33;;;;;;;0.45;0.40;;;;;;;;;;5075428;28;20099;-78
2023/12/24 02:21:03;;;;;;;0.40;0.40;;;;;;;;;;5076932;28;20132;-78
2023/12/24 02:23:29;;;;;;;0.90;0.50;;;;;;;;;;5093497;28;20043;-78
2023/12/24 02:25:58;;;;;;;0.75;0.40;;;;;;;;;;5092182;28;20020;-79
2023/12/24 02:28:25;;;;;;;0.47;0.45;;;;;;;;;;5083121;28;20116;-79
2023/12/24 02:30:57;;;;;;;0.98;0.50;;;;;;;;;;5073523;28;20372;-79
2023/12/24 02:33:24;;;;;;;0.40;0.38;;;;;;;;;;5075019;28;20016;-79
2023/12/24 02:35:50;;;;;;;0.50;0.50;;;;;;;;;;5075781;28;20032;-78
2023/12/24 02:38:15;;;;;;;0.30;0.30;;;;;;;;;;5091189;28;20028;-78
2023/12/24 02:40:40;;;;;;;0.57;0.47;;;;;;;;;;5075540;28;20035;-79
2023/12/24 02:43:08;;;;;;;0.20;0.20;;;;;;;;;;5074408;28;20376;-79
2023/12/24 02:45:33;;;;;;;0.38;0.38;;;;;;;;;;5075661;28;20280;-78
2023/12/24 02:47:58;;;;;;;0.52;0.32;;;;;;;;;;5073525;28;20020;-78
2023/12/24 02:50:23;;;;;;;0.40;0.40;;;;;;;;;;5075727;28;20135;-79
2023/12/24 02:52:49;;;;;;;0.43;0.40;;;;;;;;;;5075071;28;20329;-77
2023/12/24 02:55:14;;;;;;;0.30;0.30;;;;;;;;;;5074887;28;20738;-78
2023/12/24 02:57:39;;;;;;;0.70;0.50;;;;;;;;;;5075954;28;20032;-79
2023/12/24 03:00:08;;;;;;;0.53;0.53;;;;;;;;;;5073015;28;20556;-79
2023/12/24 03:02:34;;;;;;;3.95;0.55;;;;;;;;;;5089785;28;20299;-78
2023/12/24 03:04:59;;;;;;;1.75;0.45;;;;;;;;;;5072753;28;20424;-79
2023/12/24 03:07:24;;;;;;;1.42;0.60;;;;;;;;;;5073833;28;20043;-79
2023/12/24 03:09:49;;;;;;;3.20;1.80;;;;;;;;;;5073976;28;20064;-78
2023/12/24 03:12:14;;;;;;;0.90;0.50;;;;;;;;;;5074567;28;20354;-79
2023/12/24 03:14:40;;;;;;;0.75;0.63;;;;;;;;;;5094018;28;20272;-79
2023/12/24 03:17:05;;;;;;;1.60;0.60;;;;;;;;;;5093874;28;20073;-79
2023/12/24 03:19:32;;;;;;;0.40;0.40;;;;;;;;;;5094295;28;20040;-78
2023/12/24 03:21:57;;;;;;;0.47;0.47;;;;;;;;;;5092980;28;20287;-78
2023/12/24 03:24:22;;;;;;;0.53;0.40;;;;;;;;;;5094263;28;20032;-78
2023/12/24 03:26:47;;;;;;;0.50;0.40;;;;;;;;;;5094046;28;20580;-79
2023/12/24 03:29:13;;;;;;;1.80;1.13;;;;;;;;;;5094387;28;20279;-78
2023/12/24 03:31:38;;;;;;;0.93;0.60;;;;;;;;;;5092512;28;20692;-79
2023/12/24 03:34:03;;;;;;;1.73;0.60;;;;;;;;;;5092768;28;20487;-79
2023/12/24 03:36:29;;;;;;;1.10;0.60;;;;;;;;;;5093872;28;20325;-78
2023/12/24 03:38:54;;;;;;;0.50;0.50;;;;;;;;;;5093975;28;20253;-79
2023/12/24 03:41:19;;;;;;;0.70;0.47;;;;;;;;;;5094177;28;20085;-78
2023/12/24 03:43:44;;;;;;;0.77;0.50;;;;;;;;;;5093803;28;20275;-79
2023/12/24 03:46:10;;;;;;;1.08;0.50;;;;;;;;;;5093481;28;20313;-80
2023/12/24 03:48:36;;;;;;;0.95;0.50;;;;;;;;;;5093823;28;20497;-80
2023/12/24 03:51:01;;;;;;;0.98;0.52;;;;;;;;;;5094194;28;20045;-78
2023/12/24 03:53:28;;;;;;;0.40;0.40;;;;;;;;;;5092803;28;20115;-78
2023/12/24 03:55:53;;;;;;;1.05;0.70;;;;;;;;;;5094315;28;20028;-79
2023/12/24 03:58:19;;;;;;;0.50;0.50;;;;;;;;;;5094087;28;20235;-78
2023/12/24 04:00:44;;;;;;;0.30;0.30;;;;;;;;;;5092768;28;20059;-79
2023/12/24 04:03:09;;;;;;;1.63;0.70;;;;;;;;;;5092847;28;20297;-78
2023/12/24 04:05:34;;;;;;;0.95;0.50;;;;;;;;;;5093745;28;20743;-80
2023/12/24 04:07:59;;;;;;;1.07;0.50;;;;;;;;;;5092230;28;20054;-79
2023/12/24 04:10:25;;;;;;;0.70;0.40;;;;;;;;;;5094076;28;20244;-79
2023/12/24 04:12:50;;;;;;;0.63;0.63;;;;;;;;;;5093711;28;20024;-79
2023/12/24 04:15:15;;;;;;;0.57;0.40;;;;;;;;;;5093637;28;20339;-79
2023/12/24 04:17:40;;;;;;;0.70;0.60;;;;;;;;;;5094030;28;20028;-78
2023/12/24 04:20:06;;;;;;;0.60;0.60;;;;;;;;;;5094003;28;20091;-79
2023/12/24 04:22:31;;;;;;;0.55;0.50;;;;;;;;;;5094466;28;20596;-79
2023/12/24 04:24:57;;;;;;;0.30;0.30;;;;;;;;;;5094257;28;20101;-78
2023/12/24 04:27:22;;;;;;;1.85;0.60;;;;;;;;;;5093529;28;20028;-78
2023/12/24 04:29:48;;;;;;;1.13;0.52;;;;;;;;;;5092322;28;20114;-78
2023/12/24 04:32:13;;;;;;;0.70;0.40;;;;;;;;;;5093764;28;20036;-78
2023/12/24 04:34:38;;;;;;;0.47;0.40;;;;;;;;;;5092077;28;20020;-78
2023/12/24 04:37:04;;;;;;;0.88;0.40;;;;;;;;;;5093860;28;20910;-78
2023/12/24 04:39:29;;;;;;;0.82;0.45;;;;;;;;;;5092376;28;20097;-78
2023/12/24 04:41:54;;;;;;;1.15;0.45;;;;;;;;;;5094022;28;20153;-79
2023/12/24 04:44:19;;;;;;;0.77;0.60;;;;;;;;;;5093266;28;20115;-79
2023/12/24 04:46:46;;;;;;;1.03;0.60;;;;;;;;;;5093090;28;20292;-79
2023/12/24 04:49:11;;;;;;;0.70;0.45;;;;;;;;;;5093730;28;20260;-79
2023/12/24 04:51:36;;;;;;;2.28;0.40;;;;;;;;;;5093410;28;20024;-76
2023/12/24 04:54:02;;;;;;;0.60;0.45;;;;;;;;;;5092400;28;20047;-77
2023/12/24 04:56:27;;;;;;;0.57;0.40;;;;;;;;;;5092701;28;20395;-78
2023/12/24 04:58:53;;;;;;;0.40;0.40;;;;;;;;;;5092196;28;20031;-78
2023/12/24 05:01:18;;;;;;;0.60;0.40;;;;;;;;;;5092226;28;20260;-78
2023/12/24 05:03:44;;;;;;;0.40;0.40;;;;;;;;;;5091176;28;20518;-79
2023/12/24 05:06:10;;;;;;;0.77;0.30;;;;;;;;;;5090828;28;20475;-77
2023/12/24 05:08:35;;;;;;;0.30;0.30;;;;;;;;;;5092174;28;20028;-78
2023/12/24 05:11:07;;;;;;;0.60;0.50;;;;;;;;;;5092200;28;20028;-78
2023/12/24 05:13:36;;;;;;;0.40;0.40;;;;;;;;;;5091983;28;20491;-78
2023/12/24 05:16:05;;;;;;;0.98;0.30;;;;;;;;;;5092026;28;20036;-78
2023/12/24 05:18:31;;;;;;;1.10;0.35;;;;;;;;;;5092064;28;20054;-77
2023/12/24 05:20:56;;;;;;;0.17;0.17;;;;;;;;;;5092006;28;20028;-77
2023/12/24 05:23:24;;;;;;;0.80;0.20;;;;;;;;;;5092271;28;20020;-78
2023/12/24 05:25:49;;;;;;;1.48;0.20;;;;;;;;;;5091982;28;20455;-77
2023/12/24 05:28:16;;;;;;;0.23;0.23;;;;;;;;;;5091811;28;20031;-78
2023/12/24 05:30:41;;;;;;;0.20;0.20;;;;;;;;;;5092044;28;20679;-79
2023/12/24 05:33:06;;;;;;;0.10;0.10;;;;;;;;;;5091857;28;20049;-78
2023/12/24 05:35:32;;;;;;;0.15;0.15;;;;;;;;;;5091878;28;20099;-77
2023/12/24 05:37:57;;;;;;;0.87;0.30;;;;;;;;;;5091953;28;20028;-78
2023/12/24 05:40:22;;;;;;;0.73;0.23;;;;;;;;;;5091745;28;20288;-77
2023/12/24 05:42:47;;;;;;;0.23;0.23;;;;;;;;;;5091610;28;20257;-77
2023/12/24 05:45:13;;;;;;;0.10;0.10;;;;;;;;;;5091940;28;20310;-78
2023/12/24 05:47:38;;;;;;;1.20;0.20;;;;;;;;;;5091589;28;20257;-78
2023/12/24 05:50:04;;;;;;;0.13;0.13;;;;;;;;;;5096428;28;20065;-78
2023/12/24 05:52:29;;;;;;;0.20;0.20;;;;;;;;;;5097770;28;20035;-77
2023/12/24 05:54:54;;;;;;;0.75;0.28;;;;;;;;;;5099459;28;20036;-79
2023/12/24 05:57:20;;;;;;;0.10;0.10;;;;;;;;;;5091769;28;20031;-79
2023/12/24 05:59:45;;;;;;;0.90;0.30;;;;;;;;;;5094107;28;20281;-79
2023/12/24 06:02:11;;;;;;;0.10;0.10;;;;;;;;;;5095234;28;20016;-79
2023/12/24 06:04:36;;;;;;;0.57;0.07;;;;;;;;;;5095299;28;20073;-78
2023/12/24 06:07:01;;;;;;;1.50;0.23;;;;;;;;;;5095132;28;20268;-79
2023/12/24 06:09:26;;;;;;;0.10;0.10;;;;;;;;;;5096480;28;20310;-78
2023/12/24 06:11:52;;;;;;;0.20;0.20;;;;;;;;;;5096913;28;20023;-80
2023/12/24 06:14:17;;;;;;;1.50;0.30;;;;;;;;;;5096157;28;20031;-79
2023/12/24 06:16:42;;;;;;;0.30;0.27;;;;;;;;;;5096054;28;20274;-78
2023/12/24 06:19:07;;;;;;;0.43;0.30;;;;;;;;;;5095810;28;20260;-78
2023/12/24 06:21:32;;;;;;;0.30;0.30;;;;;;;;;;5096148;28;20647;-78
2023/12/24 06:23:58;;;;;;;0.20;0.20;;;;;;;;;;5095895;28;20272;-76
2023/12/24 06:26:23;;;;;;;0.20;0.20;;;;;;;;;;5094917;28;20253;-78
2023/12/24 06:28:49;;;;;;;0.25;0.20;;;;;;;;;;5094793;28;20259;-78
2023/12/24 06:31:21;;;;;;;0.40;0.37;;;;;;;;;;5095984;28;20032;-79
2023/12/24 06:33:47;;;;;;;0.30;0.30;;;;;;;;;;5095778;28;20263;-79
2023/12/24 06:36:12;;;;;;;0.20;0.20;;;;;;;;;;5095939;28;20453;-78
2023/12/24 06:38:37;;;;;;;0.37;0.20;;;;;;;;;;5096351;28;20040;-78
2023/12/24 06:41:03;;;;;;;0.30;0.30;;;;;;;;;;5096098;28;20293;-78
2023/12/24 06:43:28;;;;;;;0.28;0.28;;;;;;;;;;5095745;28;20271;-78
2023/12/24 06:45:53;;;;;;;0.40;0.40;;;;;;;;;;5095591;28;20028;-78
2023/12/24 06:48:18;;;;;;;0.30;0.30;;;;;;;;;;5095618;28;20020;-78
2023/12/24 06:50:43;;;;;;;0.73;0.30;;;;;;;;;;5095632;28;20264;-79
2023/12/24 06:53:09;;;;;;;0.30;0.30;;;;;;;;;;5095530;28;20261;-79
2023/12/24 06:55:34;;;;;;;0.68;0.40;;;;;;;;;;5095565;28;20257;-79
2023/12/24 06:58:02;;;;;;;1.83;0.80;;;;;;;;;;5094901;28;20533;-78
2023/12/24 07:00:27;;;;;;;0.30;0.30;;;;;;;;;;5095077;28;20027;-78
2023/12/24 07:02:53;;;;;;;0.30;0.30;;;;;;;;;;5094766;28;20024;-77
2023/12/24 07:05:18;;;;;;;0.30;0.30;;;;;;;;;;5095070;28;20082;-77
2023/12/24 07:07:43;;;;;;;0.37;0.37;;;;;;;;;;5093240;28;20053;-78
2023/12/24 07:10:08;;;;;;;1.42;0.55;;;;;;;;;;5093583;28;20249;-77
2023/12/24 07:12:34;;;;;;;0.63;0.50;;;;;;;;;;5093802;28;20032;-78
2023/12/24 07:14:59;;;;;;;0.77;0.60;;;;;;;;;;5094423;28;20260;-77
2023/12/24 07:17:24;;;;;;;1.23;0.90;;;;;;;;;;5092521;28;20173;-79
2023/12/24 07:19:49;;;;;;;1.30;0.80;;;;;;;;;;5093957;28;20315;-78
2023/12/24 07:22:16;;;;;;;2.17;1.17;;;;;;;;;;5093893;28;20271;-78
2023/12/24 07:24:41;;;;;;;0.80;0.77;;;;;;;;;;5093888;28;20024;-79
2023/12/24 07:27:07;;;;;;;0.93;0.70;;;;;;;;;;5094070;28;20016;-78
2023/12/24 07:29:32;;;;;;;0.47;0.47;;;;;;;;;;5093980;28;20257;-77
2023/12/24 07:31:57;;;;;;;1.23;0.50;;;;;;;;;;5092590;28;20016;-78
2023/12/24 07:34:22;;;;;;;0.55;0.45;;;;;;;;;;5094229;28;20647;-77
2023/12/24 07:36:47;;;;;;;0.40;0.40;;;;;;;;;;5094152;28;20110;-78
2023/12/24 07:39:13;;;;;;;0.30;0.30;;;;;;;;;;5094298;28;20679;-78
2023/12/24 07:41:39;;;;;;;0.38;0.35;;;;;;;;;;5094181;28;20348;-78
2023/12/24 07:44:04;;;;;;;1.90;0.40;;;;;;;;;;5092782;28;20027;-79
2023/12/24 07:46:29;;;;;;;0.33;0.33;;;;;;;;;;5093794;28;20035;-77
2023/12/24 07:48:54;;;;;;;1.00;0.50;;;;;;;;;;5094502;28;20264;-76
2023/12/24 07:51:19;;;;;;;0.90;0.70;;;;;;;;;;5094190;28;20263;-78
2023/12/24 07:53:45;;;;;;;0.70;0.60;;;;;;;;;;5093768;28;20256;-78
2023/12/24 07:56:10;;;;;;;2.17;0.73;;;;;;;;;;5092491;28;20077;-78
2023/12/24 07:58:36;;;;;;;0.98;0.40;;;;;;;;;;5093287;28;20260;-79
2023/12/24 08:01:02;;;;;;;0.25;0.25;;;;;;;;;;5094987;28;20501;-79
2023/12/24 08:03:27;;;;;;;0.50;0.40;;;;;;;;;;5094071;28;20028;-79
2023/12/24 08:05:52;;;;;;;0.37;0.30;;;;;;;;;;5094086;28;20023;-78
2023/12/24 08:08:18;;;;;;;2.17;0.60;;;;;;;;;;5093979;28;20260;-78
2023/12/24 08:10:43;;;;;;;0.40;0.40;;;;;;;;;;5093170;28;20027;-78
2023/12/24 08:13:08;;;;;;;0.50;0.40;;;;;;;;;;5093178;28;20437;-78
2023/12/24 08:15:34;;;;;;;0.50;0.40;;;;;;;;;;5093351;28;20291;-79
2023/12/24 08:17:59;;;;;;;0.40;0.40;;;;;;;;;;5092925;28;20410;-77
2023/12/24 08:20:24;;;;;;;1.25;0.43;;;;;;;;;;5094529;28;20316;-81
2023/12/24 08:22:49;;;;;;;0.67;0.43;;;;;;;;;;5094386;28;20036;-77
2023/12/24 08:25:15;;;;;;;0.20;0.20;;;;;;;;;;5094648;28;20257;-79
2023/12/24 08:27:41;;;;;;;0.40;0.40;;;;;;;;;;5094460;28;20253;-77
2023/12/24 08:30:06;;;;;;;0.88;0.40;;;;;;;;;;5094959;28;20012;-78
2023/12/24 08:32:32;;;;;;;0.50;0.50;;;;;;;;;;5094531;28;20050;-78
2023/12/24 08:34:57;;;;;;;0.38;0.32;;;;;;;;;;5095936;28;20423;-77
2023/12/24 08:37:22;;;;;;;0.73;0.40;;;;;;;;;;5095271;28;20020;-77
2023/12/24 08:39:47;;;;;;;0.93;0.43;;;;;;;;;;5094399;28;20040;-79
2023/12/24 08:42:14;;;;;;;0.20;0.20;;;;;;;;;;5094717;28;20284;-79
2023/12/24 08:44:39;;;;;;;0.23;0.23;;;;;;;;;;5094726;28;20032;-78
2023/12/24 08:47:04;;;;;;;0.30;0.30;;;;;;;;;;5093999;28;20256;-80
2023/12/24 08:49:29;;;;;;;0.57;0.40;;;;;;;;;;5094885;28;20257;-78
2023/12/24 08:51:54;;;;;;;0.73;0.43;;;;;;;;;;5094859;28;20111;-79
2023/12/24 08:54:20;;;;;;;0.57;0.53;;;;;;;;;;5094619;28;20300;-80
2023/12/24 08:56:45;;;;;;;0.45;0.40;;;;;;;;;;5094336;28;20264;-79
2023/12/24 08:59:10;;;;;;;0.30;0.30;;;;;;;;;;5094849;28;20035;-78
2023/12/24 09:01:40;;;;;;;0.40;0.40;;;;;;;;;;5094383;28;20272;-79
2023/12/24 09:04:05;;;;;;;0.65;0.30;;;;;;;;;;5095352;28;20253;-78
2023/12/24 09:06:31;;;;;;;0.40;0.23;;;;;;;;;;5094833;28;20024;-78
2023/12/24 09:08:56;;;;;;;0.90;0.70;;;;;;;;;;5094265;28;20279;-78
2023/12/24 09:11:21;;;;;;;1.27;0.43;;;;;;;;;;5095028;28;20081;-78
2023/12/24 09:13:46;;;;;;;1.60;0.60;;;;;;;;;;5094878;28;20023;-77
2023/12/24 09:16:12;;;;;;;3.30;0.70;;;;;;;;;;5099012;28;20256;-78
2023/12/24 09:18:37;;;;;;;0.47;0.47;;;;;;;;;;5103413;28;20258;-79
2023/12/24 09:21:02;;;;;;;0.50;0.43;;;;;;;;;;5107254;28;20028;-79
2023/12/24 09:23:27;;;;;;;0.55;0.40;;;;;;;;;;5105473;28;20499;-79
2023/12/24 09:25:52;;;;;;;0.40;0.40;;;;;;;;;;5092119;28;20054;-77
2023/12/24 09:28:18;;;;;;;0.40;0.40;;;;;;;;;;5096547;28;20257;-79
2023/12/24 09:30:43;;;;;;;0.45;0.20;;;;;;;;;;5094356;28;20252;-77
2023/12/24 09:33:08;;;;;;;0.40;0.40;;;;;;;;;;5097252;28;20110;-79
2023/12/24 09:35:35;;;;;;;0.50;0.30;;;;;;;;;;5098064;28;20291;-78
2023/12/24 09:38:00;;;;;;;0.22;0.20;;;;;;;;;;5096808;28;20272;-78
2023/12/24 09:40:26;;;;;;;1.53;0.40;;;;;;;;;;5097746;28;20118;-78
2023/12/24 09:42:51;;;;;;;1.05;0.40;;;;;;;;;;5097290;28;20307;-79
2023/12/24 09:45:17;;;;;;;0.70;0.70;;;;;;;;;;5097699;28;20025;-79
2023/12/24 09:47:42;;;;;;;0.20;0.20;;;;;;;;;;5097846;28;20502;-79
2023/12/24 09:50:07;;;;;;;0.85;0.47;;;;;;;;;;5097473;28;20743;-79
2023/12/24 09:52:33;;;;;;;0.30;0.30;;;;;;;;;;5103061;28;20034;-78
2023/12/24 09:54:59;;;;;;;0.25;0.25;;;;;;;;;;5104035;28;20028;-80
2023/12/24 09:57:25;;;;;;;1.50;0.28;;;;;;;;;;5104116;28;20509;-79
2023/12/24 09:59:50;;;;;;;0.32;0.32;;;;;;;;;;5103897;28;20039;-79
2023/12/24 10:02:15;;;;;;;2.92;1.85;;;;;;;;;;5102703;28;20016;-80
2023/12/24 10:04:41;;;;;;;0.45;0.38;;;;;;;;;;5103898;28;20028;-79
2023/12/24 10:07:09;;;;;;;0.30;0.30;;;;;;;;;;5099028;28;20047;-79
2023/12/24 10:09:47;;;;;;;0.40;0.40;;;;;;;;;;5098632;28;20264;-79
2023/12/24 10:12:13;;;;;;;1.55;0.30;;;;;;;;;;5101174;28;20030;-79
2023/12/24 10:14:39;;;;;;;0.43;0.32;;;;;;;;;;5103709;28;20051;-80
2023/12/24 10:17:05;;;;;;;0.13;0.13;;;;;;;;;;5104336;28;20028;-80
2023/12/24 10:19:31;;;;;;;0.30;0.30;;;;;;;;;;5102906;28;20073;-80
2023/12/24 10:22:05;;;;;;;0.40;0.40;;;;;;;;;;5099560;28;20030;-79
2023/12/24 10:24:31;;;;;;;0.43;0.43;;;;;;;;;;5098461;28;20035;-78
2023/12/24 10:27:07;;;;;;;0.28;0.28;;;;;;;;;;5097468;28;20427;-79
2023/12/24 10:29:37;;;;;;;0.47;0.30;;;;;;;;;;5096692;28;20027;-78
2023/12/24 10:32:03;;;;;;;0.30;0.30;;;;;;;;;;5095988;28;20066;-78
2023/12/24 10:34:30;;;;;;;0.57;0.40;;;;;;;;;;5097542;28;20020;-79
2023/12/24 10:36:55;;;;;;;0.45;0.40;;;;;;;;;;5098027;28;20024;-79
2023/12/24 10:39:24;;;;;;;0.82;0.40;;;;;;;;;;5099154;28;20412;-79
2023/12/24 10:41:55;;;;;;;0.30;0.30;;;;;;;;;;5101932;28;20415;-77
2023/12/24 10:44:21;;;;;;;0.50;0.40;;;;;;;;;;5096557;28;20031;-79
2023/12/24 10:46:47;;;;;;;0.20;0.20;;;;;;;;;;5097303;28;20020;-78
2023/12/24 10:49:12;;;;;;;0.22;0.22;;;;;;;;;;5097613;28;20055;-78
2023/12/24 10:51:39;;;;;;;0.30;0.30;;;;;;;;;;5097366;28;20540;-78
2023/12/24 10:54:06;;;;;;;0.20;0.20;;;;;;;;;;5097957;28;20506;-79
2023/12/24 10:56:39;;;;;;;0.32;0.30;;;;;;;;;;5097027;28;20028;-78
2023/12/24 10:59:16;;;;;;;0.30;0.30;;;;;;;;;;5097215;28;20467;-79
2023/12/24 11:01:46;;;;;;;0.28;0.28;;;;;;;;;;5097068;28;20121;-78
2023/12/24 11:04:41;;;;;;;0.30;0.22;;;;;;;;;;5096685;28;20024;-79
2023/12/24 11:07:06;;;;;;;0.28;0.20;;;;;;;;;;5096717;28;20028;-79
2023/12/24 11:09:34;;;;;;;0.53;0.30;;;;;;;;;;5096937;28;20106;-79
2023/12/24 11:11:59;;;;;;;0.28;0.28;;;;;;;;;;5097466;28;20454;-77
2023/12/24 11:14:41;;;;;;;0.30;0.30;;;;;;;;;;5097089;28;20489;-80
2023/12/24 11:17:08;;;;;;;0.65;0.38;;;;;;;;;;5096431;28;20260;-79
2023/12/24 11:19:35;;;;;;;0.13;0.13;;;;;;;;;;5096789;28;20035;-79
2023/12/24 11:22:11;;;;;;;0.28;0.28;;;;;;;;;;5096542;28;20053;-79
2023/12/24 11:24:44;;;;;;;0.40;0.25;;;;;;;;;;5096782;28;20039;-80
2023/12/24 11:27:09;;;;;;;0.45;0.30;;;;;;;;;;5095770;28;20598;-79
2023/12/24 11:29:41;;;;;;;0.68;0.47;;;;;;;;;;5095798;28;20059;-79
2023/12/24 11:32:24;;;;;;;0.45;0.30;;;;;;;;;;5096235;28;20024;-78
2023/12/24 11:34:50;;;;;;;2.83;0.40;;;;;;;;;;5096486;28;20016;-79
2023/12/24 11:37:35;;;;;;;0.20;0.20;;;;;;;;;;5099698;28;20117;-81
2023/12/24 11:40:08;;;;;;;0.40;0.40;;;;;;;;;;5102128;28;20054;-80
2023/12/24 11:42:46;;;;;;;1.10;0.50;;;;;;;;;;5102127;28;20023;-79
2023/12/24 11:45:29;;;;;;;0.28;0.28;;;;;;;;;;5100147;28;20046;-78
2023/12/24 11:47:54;;;;;;;0.40;0.28;;;;;;;;;;5095784;28;20030;-79
2023/12/24 11:50:19;;;;;;;0.30;0.30;;;;;;;;;;5096193;28;20028;-78
2023/12/24 11:52:46;;;;;;;0.77;0.40;;;;;;;;;;5096627;28;20028;-78
2023/12/24 11:55:18;;;;;;;0.20;0.20;;;;;;;;;;5096506;28;20024;-79
2023/12/24 11:57:44;;;;;;;0.50;0.30;;;;;;;;;;5095001;28;20024;-79
2023/12/24 12:00:14;;;;;;;0.20;0.20;;;;;;;;;;5095245;28;20024;-79
2023/12/24 12:02:42;;;;;;;0.25;0.25;;;;;;;;;;5095351;28;20032;-78
2023/12/24 12:05:09;;;;;;;0.30;0.30;;;;;;;;;;5095753;28;20020;-78
2023/12/24 12:07:35;;;;;;;0.85;0.28;;;;;;;;;;5095231;28;20073;-79
2023/12/24 12:10:00;;;;;;;0.20;0.20;;;;;;;;;;5095034;28;20020;-78
2023/12/24 12:12:25;;;;;;;1.17;0.53;;;;;;;;;;5095910;28;20031;-79
2023/12/24 12:14:50;;;;;;;0.10;0.10;;;;;;;;;;5096209;28;20285;-78
2023/12/24 12:17:15;;;;;;;0.38;0.30;;;;;;;;;;5095991;28;20256;-79
2023/12/24 12:19:41;;;;;;;0.37;0.37;;;;;;;;;;5095330;28;20024;-79
2023/12/24 12:22:06;;;;;;;0.40;0.30;;;;;;;;;;5096542;28;20267;-78
2023/12/24 12:24:31;;;;;;;12.33;0.40;;;;;;;;;;5096092;28;20256;-77
2023/12/24 12:26:57;;;;;;;0.35;0.30;;;;;;;;;;5096691;28;20804;-79
2023/12/24 12:29:22;;;;;;;0.32;0.32;;;;;;;;;;5096833;28;20036;-78
2023/12/24 12:31:47;;;;;;;0.20;0.20;;;;;;;;;;5096146;28;20036;-78
2023/12/24 12:34:13;;;;;;;0.40;0.40;;;;;;;;;;5103085;28;20040;-78
2023/12/24 12:36:38;;;;;;;0.40;0.30;;;;;;;;;;5102578;28;20310;-79
2023/12/24 12:39:03;;;;;;;0.33;0.20;;;;;;;;;;5102501;28;20439;-79
2023/12/24 12:41:28;;;;;;;0.40;0.40;;;;;;;;;;5099211;28;20715;-79
2023/12/24 12:43:54;;;;;;;0.47;0.30;;;;;;;;;;5101915;28;20072;-79
2023/12/24 12:46:20;;;;;;;0.20;0.20;;;;;;;;;;5108997;28;20282;-77
2023/12/24 12:48:45;;;;;;;0.25;0.20;;;;;;;;;;5107503;28;20054;-79
2023/12/24 12:51:10;;;;;;;0.30;0.30;;;;;;;;;;5103914;28;20028;-80
2023/12/24 12:53:35;;;;;;;0.55;0.45;;;;;;;;;;5094415;28;20024;-79
2023/12/24 12:56:07;;;;;;;0.40;0.40;;;;;;;;;;5094080;28;20020;-79
2023/12/24 12:58:32;;;;;;;0.55;0.40;;;;;;;;;;5094536;28;20252;-80
2023/12/24 13:00:58;;;;;;;0.10;0.10;;;;;;;;;;5094216;28;20040;-78
2023/12/24 13:03:23;;;;;;;0.20;0.13;;;;;;;;;;5099256;28;20031;-80
2023/12/24 13:05:48;;;;;;;0.27;0.27;;;;;;;;;;5102034;28;20510;-79
2023/12/24 13:08:15;;;;;;;0.20;0.20;;;;;;;;;;5103222;28;20305;-78
2023/12/24 13:10:42;;;;;;;0.30;0.30;;;;;;;;;;5105985;28;20260;-79
2023/12/24 13:13:16;;;;;;;0.20;0.20;;;;;;;;;;5105295;28;20024;-80
2023/12/24 13:15:44;;;;;;;0.20;0.20;;;;;;;;;;5106413;28;20024;-80
2023/12/24 13:18:16;;;;;;;0.28;0.25;;;;;;;;;;5106101;28;20052;-80
2023/12/24 13:20:51;;;;;;;0.20;0.13;;;;;;;;;;5105127;28;20032;-80
2023/12/24 13:23:24;;;;;;;0.20;0.20;;;;;;;;;;5105085;28;20481;-79
2023/12/24 13:25:50;;;;;;;0.68;0.43;;;;;;;;;;5099718;28;20016;-77
2023/12/24 13:28:16;;;;;;;0.50;0.50;;;;;;;;;;5099339;28;20043;-79
2023/12/24 13:30:42;;;;;;;0.20;0.20;;;;;;;;;;5099954;28;20475;-78
2023/12/24 13:33:08;;;;;;;0.57;0.47;;;;;;;;;;5099348;28;20098;-77
2023/12/24 13:35:39;;;;;;;1.00;0.40;;;;;;;;;;5099036;28;20457;-79
2023/12/24 13:38:17;;;;;;;0.68;0.30;;;;;;;;;;5098596;28;20110;-80
2023/12/24 13:40:43;;;;;;;0.45;0.40;;;;;;;;;;5104421;28;20115;-79
2023/12/24 13:43:10;;;;;;;0.38;0.38;;;;;;;;;;5105671;28;20027;-79
2023/12/24 13:45:35;;;;;;;0.50;0.40;;;;;;;;;;5106087;28;20035;-79
2023/12/24 13:48:02;;;;;;;0.40;0.25;;;;;;;;;;5106111;28;20031;-80
2023/12/24 13:50:28;;;;;;;0.60;0.50;;;;;;;;;;5105849;28;20467;-79
2023/12/24 13:52:57;;;;;;;0.28;0.28;;;;;;;;;;5105609;28;20039;-78
2023/12/24 13:55:23;;;;;;;0.30;0.30;;;;;;;;;;5105510;28;20020;-79
2023/12/24 13:57:50;;;;;;;0.32;0.25;;;;;;;;;;5103985;28;20123;-80
2023/12/24 14:00:16;;;;;;;0.10;0.10;;;;;;;;;;5104060;28;20032;-80
2023/12/24 14:02:42;;;;;;;0.35;0.20;;;;;;;;;;5104709;28;20040;-78
2023/12/24 14:05:10;;;;;;;2.63;0.22;;;;;;;;;;5104782;28;20049;-78
2023/12/24 14:07:35;;;;;;;1.10;0.40;;;;;;;;;;5104356;28;20031;-80
2023/12/24 14:10:00;;;;;;;0.30;0.30;;;;;;;;;;5105129;28;20028;-80
2023/12/24 14:12:26;;;;;;;0.30;0.30;;;;;;;;;;5105041;28;20676;-81
2023/12/24 14:14:52;;;;;;;0.20;0.20;;;;;;;;;;5104916;28;20627;-80
2023/12/24 14:17:17;;;;;;;0.20;0.20;;;;;;;;;;5104217;28;20024;-79
2023/12/24 14:19:42;;;;;;;0.32;0.30;;;;;;;;;;5103432;28;20025;-79
2023/12/24 14:22:07;;;;;;;0.52;0.30;;;;;;;;;;5103198;28;20028;-79
2023/12/24 14:24:33;;;;;;;0.23;0.23;;;;;;;;;;5100349;28;20027;-78
2023/12/24 14:26:58;;;;;;;0.50;0.50;;;;;;;;;;5099649;28;20324;-80
2023/12/24 14:29:24;;;;;;;1.40;0.60;;;;;;;;;;5101470;28;20292;-80
2023/12/24 14:31:49;;;;;;;0.93;0.47;;;;;;;;;;5102872;28;20271;-78
2023/12/24 14:34:14;;;;;;;1.73;0.83;;;;;;;;;;5102949;28;20035;-79
2023/12/24 14:36:39;;;;;;;0.55;0.40;;;;;;;;;;5100432;28;20264;-79